Time;durP1;ratioP1;P1;durP2;ratioP2;P2;SDS_P1;SDS_P2;PMS_P1;PMS_P2;Temp;Humidity;BMP_temperature;BMP_pressure;BME280_temperature;BME280_humidity;BME280_pressure;Samples;Min_cycle;Max_cycle;Signal;HPM_P1;HPM_P2
2022/06/09 00:00:11;;;;;;;13.30;11.83;;;16.40;99.90;;;;;;5098037;28;20527;-84
2022/06/09 00:02:45;;;;;;;14.80;12.30;;;16.40;99.90;;;;;;5096903;28;20461;-84
2022/06/09 00:05:15;;;;;;;13.80;12.40;;;16.40;99.90;;;;;;5096033;28;20524;-82
2022/06/09 00:07:45;;;;;;;13.23;11.73;;;16.40;99.90;;;;;;5098455;28;20510;-82
2022/06/09 00:10:19;;;;;;;13.97;11.37;;;16.40;99.90;;;;;;5098563;28;20515;-83
2022/06/09 00:12:47;;;;;;;14.60;12.80;;;16.40;99.90;;;;;;5096448;28;20463;-83
2022/06/09 00:15:16;;;;;;;14.73;12.77;;;16.40;99.90;;;;;;5096398;28;20467;-81
2022/06/09 00:17:44;;;;;;;16.80;13.50;;;16.40;99.90;;;;;;5096434;28;20449;-84
2022/06/09 00:20:16;;;;;;;15.27;12.87;;;16.40;99.90;;;;;;5098269;28;20435;-84
2022/06/09 00:22:45;;;;;;;18.20;13.00;;;16.40;99.90;;;;;;5097829;28;20423;-84
2022/06/09 00:25:15;;;;;;;16.20;13.33;;;16.40;99.90;;;;;;5098142;28;20800;-86
2022/06/09 00:27:43;;;;;;;16.40;13.77;;;16.40;99.90;;;;;;5097361;28;20908;-85
2022/06/09 00:30:14;;;;;;;16.60;14.50;;;16.40;99.90;;;;;;5097341;28;20438;-84
2022/06/09 00:32:42;;;;;;;20.50;15.50;;;16.40;99.90;;;;;;5096923;28;20457;-85
2022/06/09 00:35:11;;;;;;;16.30;14.60;;;16.40;99.90;;;;;;5098129;28;20427;-84
2022/06/09 00:37:39;;;;;;;17.50;15.37;;;16.40;99.90;;;;;;5096450;28;21018;-84
2022/06/09 00:40:11;;;;;;;23.00;15.57;;;16.40;99.90;;;;;;5096552;28;20548;-84
2022/06/09 00:42:41;;;;;;;18.33;15.63;;;16.40;99.90;;;;;;5096826;28;20419;-82
2022/06/09 00:45:28;;;;;;;19.10;16.67;;;16.40;99.90;;;;;;5096153;28;20540;-84
2022/06/09 00:48:06;;;;;;;20.27;15.47;;;16.40;99.90;;;;;;5097574;28;20421;-84
2022/06/09 00:50:37;;;;;;;21.67;15.60;;;16.40;99.90;;;;;;5095683;28;20827;-84
2022/06/09 00:53:13;;;;;;;20.00;16.70;;;16.40;99.90;;;;;;5095927;28;20525;-82
2022/06/09 00:55:43;;;;;;;22.50;17.87;;;16.40;99.90;;;;;;5096710;28;20426;-85
2022/06/09 00:58:18;;;;;;;21.27;18.00;;;16.30;99.90;;;;;;5095492;28;20506;-83
2022/06/09 01:00:51;;;;;;;20.27;17.57;;;16.30;99.90;;;;;;5096174;28;20763;-85
2022/06/09 01:03:23;;;;;;;26.30;19.10;;;16.30;99.90;;;;;;5095830;28;20451;-86
2022/06/09 01:05:55;;;;;;;25.37;18.87;;;16.30;99.90;;;;;;5095258;28;20485;-83
2022/06/09 01:08:31;;;;;;;25.73;22.00;;;16.30;99.90;;;;;;5096055;28;20475;-85
2022/06/09 01:10:59;;;;;;;24.40;20.90;;;16.30;99.90;;;;;;5095734;28;20436;-84
2022/06/09 01:13:29;;;;;;;24.20;20.03;;;16.30;99.90;;;;;;5094844;28;20449;-83
2022/06/09 01:16:04;;;;;;;26.70;22.20;;;16.30;99.90;;;;;;5094945;28;20502;-82
2022/06/09 01:18:44;;;;;;;22.80;20.17;;;16.30;99.90;;;;;;5094929;28;20501;-81
2022/06/09 01:21:24;;;;;;;27.40;22.20;;;16.30;99.90;;;;;;5096024;28;20399;-83
2022/06/09 01:24:26;;;;;;;26.07;22.27;;;16.30;99.90;;;;;;5096211;28;20444;-84
2022/06/09 01:27:15;;;;;;;25.23;22.23;;;16.30;99.90;;;;;;5094941;28;20438;-82
2022/06/09 01:29:50;;;;;;;25.80;21.50;;;16.30;99.90;;;;;;5095900;28;20410;-86
2022/06/09 01:32:28;;;;;;;25.90;22.60;;;16.30;99.90;;;;;;5094453;28;20514;-82
2022/06/09 01:35:08;;;;;;;27.70;21.93;;;16.30;99.90;;;;;;5094353;28;20451;-81
2022/06/09 01:37:42;;;;;;;29.77;23.87;;;16.30;99.90;;;;;;5094432;28;20407;-81
2022/06/09 01:40:13;;;;;;;27.00;22.87;;;16.30;99.90;;;;;;5096162;28;20503;-85
2022/06/09 01:42:43;;;;;;;26.43;21.37;;;16.30;99.90;;;;;;5094471;28;20426;-84
2022/06/09 01:45:16;;;;;;;27.77;22.07;;;16.30;99.90;;;;;;5095493;28;20451;-82
2022/06/09 01:47:49;;;;;;;26.07;22.80;;;16.30;99.90;;;;;;5094239;28;20423;-83
2022/06/09 01:50:24;;;;;;;29.83;23.53;;;16.40;99.90;;;;;;5094461;28;20419;-84
2022/06/09 01:52:54;;;;;;;27.97;23.43;;;16.40;99.90;;;;;;5094208;28;20934;-85
2022/06/09 01:55:24;;;;;;;27.17;23.47;;;16.40;99.90;;;;;;5094483;28;20446;-83
2022/06/09 01:57:58;;;;;;;31.07;22.60;;;16.40;99.90;;;;;;5095964;28;20399;-85
2022/06/09 02:00:28;;;;;;;27.33;23.17;;;16.40;99.90;;;;;;5095069;28;20442;-84
2022/06/09 02:03:03;;;;;;;28.43;23.47;;;16.40;99.90;;;;;;5094508;28;20509;-85
2022/06/09 02:05:37;;;;;;;30.37;23.30;;;16.40;99.90;;;;;;5094133;28;20980;-84
2022/06/09 02:08:09;;;;;;;29.80;23.67;;;16.40;99.90;;;;;;5096293;28;20399;-84
2022/06/09 02:10:40;;;;;;;32.10;23.07;;;16.30;99.90;;;;;;5095543;28;20755;-83
2022/06/09 02:13:14;;;;;;;28.17;22.70;;;16.30;99.90;;;;;;5094617;28;20547;-83
2022/06/09 02:15:45;;;;;;;32.50;23.43;;;16.30;99.90;;;;;;5094153;28;20572;-82
2022/06/09 02:18:18;;;;;;;30.20;23.53;;;16.30;99.90;;;;;;5095576;28;20456;-84
2022/06/09 02:20:50;;;;;;;31.87;23.87;;;16.30;99.90;;;;;;5093916;28;20445;-84
2022/06/09 02:23:18;;;;;;;37.33;24.50;;;16.30;99.90;;;;;;5093938;28;20419;-85
2022/06/09 02:25:46;;;;;;;29.40;23.53;;;16.30;99.90;;;;;;5093834;28;20455;-83
2022/06/09 02:28:15;;;;;;;31.37;24.80;;;16.30;99.90;;;;;;5098252;28;20444;-85
2022/06/09 02:30:43;;;;;;;31.30;24.00;;;16.30;99.90;;;;;;5099808;28;20553;-82
2022/06/09 02:33:21;;;;;;;30.83;24.33;;;16.30;99.90;;;;;;5099693;28;20402;-84
2022/06/09 02:35:50;;;;;;;31.70;25.37;;;16.30;99.90;;;;;;5098931;28;20966;-84
2022/06/09 02:38:19;;;;;;;30.57;22.50;;;16.30;99.90;;;;;;5097529;28;20849;-85
2022/06/09 02:40:48;;;;;;;32.40;25.40;;;16.30;99.90;;;;;;5097861;28;20452;-84
2022/06/09 02:43:17;;;;;;;30.10;23.67;;;16.30;99.90;;;;;;5099434;28;20439;-83
2022/06/09 02:45:45;;;;;;;29.17;24.17;;;16.30;99.90;;;;;;5097534;28;20430;-84
2022/06/09 02:48:13;;;;;;;30.17;23.03;;;16.30;99.90;;;;;;5102736;28;20518;-81
2022/06/09 02:50:44;;;;;;;29.60;23.70;;;16.30;99.90;;;;;;5107286;28;20849;-81
2022/06/09 02:53:12;;;;;;;30.70;25.53;;;16.30;99.90;;;;;;5107622;28;20407;-83
2022/06/09 02:55:40;;;;;;;29.90;23.60;;;16.30;99.90;;;;;;5107844;28;20447;-80
2022/06/09 02:58:09;;;;;;;29.30;23.70;;;16.30;99.90;;;;;;5110689;28;20447;-81
2022/06/09 03:00:37;;;;;;;31.67;24.40;;;16.30;99.90;;;;;;5108304;28;20529;-82
2022/06/09 03:03:09;;;;;;;33.07;24.97;;;16.30;99.90;;;;;;5107262;28;20546;-83
2022/06/09 03:05:38;;;;;;;31.83;23.97;;;16.30;99.90;;;;;;5112374;28;20460;-82
2022/06/09 03:08:08;;;;;;;34.67;26.03;;;16.30;99.90;;;;;;5111967;28;20433;-84
2022/06/09 03:10:38;;;;;;;32.20;25.43;;;16.30;99.90;;;;;;5109493;28;20445;-79
2022/06/09 03:13:07;;;;;;;30.57;23.97;;;16.30;99.90;;;;;;5109162;28;20423;-81
2022/06/09 03:15:36;;;;;;;33.50;25.20;;;16.30;99.90;;;;;;5109810;28;20518;-81
2022/06/09 03:18:05;;;;;;;29.50;22.60;;;16.30;99.90;;;;;;5109070;28;20476;-83
2022/06/09 03:20:34;;;;;;;32.90;23.23;;;16.30;99.90;;;;;;5110237;28;20456;-84
2022/06/09 03:23:02;;;;;;;29.90;23.23;;;16.30;99.90;;;;;;5108600;28;20411;-82
2022/06/09 03:25:33;;;;;;;32.80;24.60;;;16.30;99.90;;;;;;5107828;28;20443;-84
2022/06/09 03:28:01;;;;;;;31.03;25.13;;;16.30;99.90;;;;;;5108360;28;20422;-80
2022/06/09 03:30:32;;;;;;;30.10;24.27;;;16.30;99.90;;;;;;5102468;28;20458;-83
2022/06/09 03:33:01;;;;;;;29.20;23.30;;;16.30;99.90;;;;;;5100307;28;20419;-83
2022/06/09 03:35:31;;;;;;;30.23;23.97;;;16.30;99.90;;;;;;5099630;28;21030;-84
2022/06/09 03:38:00;;;;;;;35.23;24.53;;;16.20;99.90;;;;;;5097591;28;20509;-82
2022/06/09 03:40:29;;;;;;;28.57;22.57;;;16.20;99.90;;;;;;5097646;28;20440;-82
2022/06/09 03:43:02;;;;;;;33.50;25.20;;;16.20;99.90;;;;;;5098678;28;20414;-82
2022/06/09 03:45:32;;;;;;;35.33;25.43;;;16.20;99.90;;;;;;5098969;28;20995;-83
2022/06/09 03:48:01;;;;;;;31.23;25.00;;;16.20;99.90;;;;;;5097202;28;20415;-84
2022/06/09 03:50:32;;;;;;;32.13;24.23;;;16.20;99.90;;;;;;5097240;28;20448;-83
2022/06/09 03:53:00;;;;;;;33.53;24.80;;;16.20;99.90;;;;;;5096865;28;20430;-83
2022/06/09 03:55:29;;;;;;;30.40;23.70;;;16.20;99.90;;;;;;5096535;28;20472;-82
2022/06/09 03:57:58;;;;;;;29.87;24.60;;;16.20;99.90;;;;;;5096514;28;20458;-83
2022/06/09 04:00:30;;;;;;;43.07;26.07;;;16.20;99.90;;;;;;5098182;28;20506;-82
2022/06/09 04:02:59;;;;;;;30.63;23.60;;;16.20;99.90;;;;;;5096322;28;20452;-84
2022/06/09 04:05:28;;;;;;;36.23;23.90;;;16.20;99.90;;;;;;5097864;28;20435;-84
2022/06/09 04:07:58;;;;;;;33.70;25.73;;;16.20;99.90;;;;;;5096053;28;20414;-84
2022/06/09 04:10:30;;;;;;;30.40;22.13;;;16.20;99.90;;;;;;5097805;28;20395;-85
2022/06/09 04:13:00;;;;;;;29.80;23.00;;;16.20;99.90;;;;;;5095963;28;20407;-84
2022/06/09 04:15:29;;;;;;;32.27;22.90;;;16.20;99.90;;;;;;5097367;28;20508;-84
2022/06/09 04:17:57;;;;;;;25.13;21.50;;;16.20;99.90;;;;;;5095601;28;20444;-83
2022/06/09 04:20:27;;;;;;;34.00;21.40;;;16.20;99.90;;;;;;5095909;28;20448;-83
2022/06/09 04:22:55;;;;;;;30.20;22.50;;;16.20;99.90;;;;;;5095652;28;20442;-83
2022/06/09 04:25:24;;;;;;;29.97;22.43;;;16.20;99.90;;;;;;5097031;28;20443;-84
2022/06/09 04:27:52;;;;;;;31.60;23.27;;;16.30;99.90;;;;;;5095804;28;20418;-83
2022/06/09 04:30:23;;;;;;;27.50;23.60;;;16.20;99.90;;;;;;5095901;28;20431;-81
2022/06/09 04:32:54;;;;;;;29.43;21.83;;;16.30;99.90;;;;;;5097391;28;20407;-83
2022/06/09 04:35:22;;;;;;;26.93;21.67;;;16.30;99.90;;;;;;5095692;28;20553;-83
2022/06/09 04:38:03;;;;;;;26.17;19.37;;;16.30;99.90;;;;;;5101102;28;20458;-82
2022/06/09 04:40:34;;;;;;;30.80;22.20;;;16.30;99.90;;;;;;5096223;28;20419;-82
2022/06/09 04:43:04;;;;;;;25.47;20.30;;;16.30;99.90;;;;;;5096233;28;20995;-83
2022/06/09 04:45:35;;;;;;;26.80;22.27;;;16.30;99.90;;;;;;5097503;28;20574;-83
2022/06/09 04:48:03;;;;;;;28.10;21.53;;;16.30;99.90;;;;;;5096340;28;20518;-83
2022/06/09 04:50:33;;;;;;;26.23;21.30;;;16.30;99.90;;;;;;5096368;28;20456;-83
2022/06/09 04:53:01;;;;;;;29.17;22.50;;;16.30;99.90;;;;;;5095973;28;20452;-81
2022/06/09 04:55:31;;;;;;;30.80;22.27;;;16.40;99.90;;;;;;5096989;28;20443;-82
2022/06/09 04:57:59;;;;;;;31.30;21.40;;;16.40;99.90;;;;;;5094974;28;20437;-84
2022/06/09 05:00:27;;;;;;;30.97;22.33;;;16.40;99.90;;;;;;5096845;28;20448;-83
2022/06/09 05:02:59;;;;;;;26.10;20.30;;;16.30;99.90;;;;;;5094508;28;20543;-85
2022/06/09 05:05:32;;;;;;;25.20;20.80;;;16.30;99.90;;;;;;5095086;28;20445;-84
2022/06/09 05:08:00;;;;;;;26.93;20.70;;;16.30;99.90;;;;;;5095131;28;20410;-83
2022/06/09 05:10:29;;;;;;;30.90;21.57;;;16.30;99.90;;;;;;5094663;28;20783;-82
2022/06/09 05:12:58;;;;;;;29.20;22.13;;;16.30;99.90;;;;;;5095111;28;20535;-85
2022/06/09 05:15:27;;;;;;;28.50;20.70;;;16.30;99.90;;;;;;5095750;28;20450;-82
2022/06/09 05:17:58;;;;;;;26.23;21.77;;;16.30;99.90;;;;;;5094510;28;20415;-82
2022/06/09 05:20:26;;;;;;;27.53;20.40;;;16.30;99.90;;;;;;5095130;28;20501;-80
2022/06/09 05:22:55;;;;;;;24.87;22.20;;;16.30;99.90;;;;;;5094794;28;20505;-82
2022/06/09 05:25:23;;;;;;;25.63;19.93;;;16.30;99.90;;;;;;5094571;28;20435;-83
2022/06/09 05:27:52;;;;;;;22.80;18.40;;;16.30;99.90;;;;;;5094506;28;20462;-81
2022/06/09 05:30:23;;;;;;;26.40;18.20;;;16.30;99.90;;;;;;5095897;28;20444;-82
2022/06/09 05:32:52;;;;;;;24.10;19.90;;;16.30;99.90;;;;;;5096176;28;20467;-84
2022/06/09 05:35:22;;;;;;;22.83;17.60;;;16.30;99.90;;;;;;5094507;28;20476;-82
2022/06/09 05:46:15;;;;;;;25.47;16.80;;;16.30;99.90;;;;;;5098748;28;20467;-82
2022/06/09 05:48:44;;;;;;;21.80;15.77;;;16.30;99.90;;;;;;5098681;28;20489;-86
2022/06/09 05:51:16;;;;;;;23.70;17.13;;;16.30;99.90;;;;;;5096190;28;20434;-83
2022/06/09 05:53:45;;;;;;;19.63;15.53;;;16.40;99.90;;;;;;5096776;28;20419;-83
2022/06/09 05:56:14;;;;;;;19.63;15.13;;;16.40;99.90;;;;;;5097921;28;20464;-85
2022/06/09 05:58:43;;;;;;;22.57;14.90;;;16.40;99.90;;;;;;5096679;28;20427;-84
2022/06/09 06:01:13;;;;;;;28.80;15.50;;;16.40;99.90;;;;;;5096564;28;20447;-82
2022/06/09 06:03:42;;;;;;;25.13;16.20;;;16.40;99.90;;;;;;5100103;28;20841;-83
2022/06/09 06:08:57;;;;;;;17.33;15.50;;;16.40;99.90;;;;;;5099463;28;20425;-82
2022/06/09 06:11:26;;;;;;;23.87;15.73;;;16.40;99.90;;;;;;5098890;28;20525;-82
2022/06/09 06:13:54;;;;;;;19.50;15.73;;;16.50;99.90;;;;;;5100873;28;20432;-82
2022/06/09 06:16:23;;;;;;;18.93;14.30;;;16.50;99.90;;;;;;5099491;28;21010;-84
2022/06/09 06:19:09;;;;;;;20.30;13.50;;;16.60;99.90;;;;;;5098879;28;20455;-84
2022/06/09 06:21:38;;;;;;;18.37;15.57;;;16.80;99.90;;;;;;5100561;28;20750;-85
2022/06/09 06:24:09;;;;;;;21.20;13.80;;;16.80;99.90;;;;;;5101354;28;20949;-83
2022/06/09 06:26:38;;;;;;;21.70;14.30;;;16.90;99.90;;;;;;5098887;28;20451;-81
2022/06/09 06:29:07;;;;;;;16.17;13.20;;;16.90;99.90;;;;;;5098319;28;20430;-83
2022/06/09 06:31:36;;;;;;;21.37;13.10;;;16.90;99.90;;;;;;5098570;28;20448;-83
2022/06/09 06:34:05;;;;;;;15.83;12.57;;;16.90;99.90;;;;;;5099705;28;20442;-83
2022/06/09 06:36:33;;;;;;;15.13;11.90;;;16.90;99.90;;;;;;5097962;28;20562;-84
2022/06/09 06:39:01;;;;;;;19.33;13.20;;;16.90;99.90;;;;;;5098082;28;20465;-84
2022/06/09 06:41:31;;;;;;;18.00;13.57;;;16.90;99.90;;;;;;5098381;28;20477;-81
2022/06/09 06:43:59;;;;;;;18.00;11.90;;;16.90;99.90;;;;;;5098206;28;20479;-82
2022/06/09 06:46:28;;;;;;;21.00;14.60;;;16.90;99.90;;;;;;5097719;28;20505;-83
2022/06/09 06:48:57;;;;;;;16.20;12.70;;;16.90;99.90;;;;;;5099087;28;20814;-82
2022/06/09 06:51:25;;;;;;;19.53;12.33;;;16.90;99.90;;;;;;5097946;28;20493;-81
2022/06/09 06:53:53;;;;;;;17.43;12.80;;;16.90;99.90;;;;;;5097474;28;20448;-84
2022/06/09 06:56:21;;;;;;;16.17;11.60;;;16.90;99.90;;;;;;5097829;28;20446;-82
2022/06/09 06:58:51;;;;;;;14.50;12.40;;;16.90;99.90;;;;;;5097804;28;20531;-84
2022/06/09 07:01:19;;;;;;;15.50;12.60;;;17.00;99.90;;;;;;5097267;28;20542;-83
2022/06/09 07:03:48;;;;;;;18.37;12.93;;;17.10;99.90;;;;;;5097327;28;20426;-84
2022/06/09 07:06:17;;;;;;;16.07;12.30;;;17.20;99.90;;;;;;5097880;28;20464;-81
2022/06/09 07:08:45;;;;;;;16.20;12.90;;;17.30;99.90;;;;;;5099424;28;20448;-83
2022/06/09 07:11:14;;;;;;;15.40;11.97;;;17.30;99.90;;;;;;5098963;28;20445;-82
2022/06/09 07:13:43;;;;;;;19.00;13.03;;;17.40;99.90;;;;;;5096374;28;20957;-82
2022/06/09 07:16:13;;;;;;;16.70;13.73;;;17.40;99.90;;;;;;5099051;28;20469;-83
2022/06/09 07:19:01;;;;;;;17.53;12.63;;;17.40;99.90;;;;;;5096987;28;20479;-84
2022/06/09 07:21:30;;;;;;;16.60;13.83;;;17.40;99.90;;;;;;5098857;28;20469;-82
2022/06/09 07:23:58;;;;;;;17.67;14.13;;;17.50;99.90;;;;;;5097811;28;20451;-82
2022/06/09 07:26:28;;;;;;;14.43;11.37;;;17.60;99.90;;;;;;5096519;28;20733;-83
2022/06/09 07:28:56;;;;;;;18.37;12.47;;;17.70;99.90;;;;;;5097706;28;20403;-83
2022/06/09 07:31:26;;;;;;;15.70;12.10;;;17.80;99.90;;;;;;5096796;28;20484;-84
2022/06/09 07:33:55;;;;;;;14.20;11.43;;;17.80;99.90;;;;;;5097903;28;20411;-80
2022/06/09 07:36:26;;;;;;;18.77;11.80;;;17.90;99.90;;;;;;5097365;28;20844;-84
2022/06/09 07:38:54;;;;;;;14.13;10.97;;;17.90;99.90;;;;;;5098083;28;20843;-82
2022/06/09 07:41:22;;;;;;;15.17;11.07;;;18.00;99.90;;;;;;5096671;28;20452;-81
2022/06/09 07:44:00;;;;;;;14.90;11.30;;;18.00;99.90;;;;;;5098701;28;20463;-80
2022/06/09 07:46:31;;;;;;;18.07;12.30;;;18.00;99.90;;;;;;5099826;28;20471;-81
2022/06/09 07:49:00;;;;;;;14.10;11.30;;;18.00;99.90;;;;;;5098345;28;20403;-83
2022/06/09 07:51:30;;;;;;;16.13;11.77;;;18.00;99.90;;;;;;5096623;28;20483;-83
2022/06/09 07:53:58;;;;;;;20.83;11.90;;;18.10;99.90;;;;;;5096417;28;20480;-81
2022/06/09 07:56:27;;;;;;;15.13;11.10;;;18.20;99.90;;;;;;5097073;28;20502;-82
2022/06/09 07:58:56;;;;;;;15.40;11.63;;;18.30;99.90;;;;;;5097981;28;20448;-85
2022/06/09 08:01:24;;;;;;;17.40;11.40;;;18.40;99.90;;;;;;5098314;28;20440;-82
2022/06/09 08:03:54;;;;;;;15.33;11.87;;;18.30;99.90;;;;;;5098023;28;20520;-83
2022/06/09 08:06:23;;;;;;;18.00;11.70;;;18.40;99.90;;;;;;5096921;28;20456;-84
2022/06/09 08:08:56;;;;;;;15.17;11.90;;;18.40;99.90;;;;;;5096580;28;20444;-83
2022/06/09 08:11:26;;;;;;;13.57;11.57;;;18.40;99.90;;;;;;5098071;28;20865;-83
2022/06/09 08:13:55;;;;;;;16.13;12.70;;;18.40;99.90;;;;;;5096446;28;20484;-81
2022/06/09 08:16:25;;;;;;;15.40;13.13;;;18.40;99.90;;;;;;5097037;28;20463;-82
2022/06/09 08:18:55;;;;;;;18.17;12.30;;;18.40;99.90;;;;;;5096470;28;20464;-83
2022/06/09 08:21:23;;;;;;;15.27;12.67;;;18.50;99.90;;;;;;5097607;28;20444;-83
2022/06/09 08:24:10;;;;;;;14.07;12.53;;;18.50;99.90;;;;;;5096092;28;20452;-83
2022/06/09 08:26:38;;;;;;;19.17;11.70;;;18.50;99.90;;;;;;5096359;28;20448;-81
2022/06/09 08:29:07;;;;;;;18.00;12.87;;;18.70;99.90;;;;;;5096556;28;20452;-81
2022/06/09 08:31:36;;;;;;;14.50;13.00;;;18.70;99.90;;;;;;5097113;28;20436;-80
2022/06/09 08:34:06;;;;;;;16.83;12.70;;;18.70;99.90;;;;;;5096093;28;20476;-83
2022/06/09 08:36:34;;;;;;;16.60;12.77;;;18.70;99.90;;;;;;5095994;28;20415;-85
2022/06/09 08:39:03;;;;;;;15.07;12.20;;;18.60;99.90;;;;;;5097509;28;21040;-83
2022/06/09 08:41:49;;;;;;;18.70;13.33;;;18.60;99.90;;;;;;5095470;28;20848;-83
2022/06/09 08:44:25;;;;;;;14.87;12.03;;;18.60;99.90;;;;;;5096038;28;20472;-80
2022/06/09 08:47:01;;;;;;;15.50;12.70;;;18.50;99.90;;;;;;5097491;28;20489;-82
2022/06/09 08:49:40;;;;;;;14.77;12.27;;;18.50;99.90;;;;;;5095595;28;20531;-82
2022/06/09 08:52:18;;;;;;;16.30;11.80;;;18.40;99.90;;;;;;5096662;28;20455;-82
2022/06/09 08:54:48;;;;;;;16.10;11.90;;;18.50;99.90;;;;;;5096622;28;20949;-81
2022/06/09 08:57:19;;;;;;;13.70;12.23;;;18.50;99.90;;;;;;5094867;28;20975;-80
2022/06/09 08:59:56;;;;;;;14.50;10.40;;;18.50;99.90;;;;;;5095154;28;20448;-81
2022/06/09 09:02:32;;;;;;;13.93;11.97;;;18.50;99.90;;;;;;5095373;28;20496;-80
2022/06/09 09:05:12;;;;;;;15.00;12.40;;;18.70;99.90;;;;;;5095483;28;21053;-83
2022/06/09 09:07:45;;;;;;;12.90;11.57;;;18.70;99.90;;;;;;5095521;28;20440;-83
2022/06/09 09:10:18;;;;;;;14.80;12.00;;;18.80;99.90;;;;;;5094874;28;20474;-83
2022/06/09 09:12:58;;;;;;;17.10;12.30;;;18.90;99.90;;;;;;5094961;28;20918;-82
2022/06/09 09:15:31;;;;;;;14.37;11.40;;;19.10;99.90;;;;;;5094573;28;20476;-82
2022/06/09 09:18:15;;;;;;;12.80;11.50;;;19.10;99.90;;;;;;5094626;28;20521;-82
2022/06/09 09:20:54;;;;;;;14.93;12.30;;;19.20;99.90;;;;;;5095366;28;20511;-81
2022/06/09 09:23:31;;;;;;;15.03;10.70;;;19.40;99.90;;;;;;5094774;28;20488;-82
2022/06/09 09:26:15;;;;;;;16.23;10.43;;;19.40;99.90;;;;;;5096773;28;20788;-81
2022/06/09 09:28:49;;;;;;;12.50;11.20;;;19.50;99.90;;;;;;5094994;28;20471;-81
2022/06/09 09:31:33;;;;;;;18.20;11.07;;;19.60;99.90;;;;;;5095817;28;20416;-81
2022/06/09 09:34:03;;;;;;;13.87;10.63;;;19.80;99.90;;;;;;5094152;28;21004;-80
2022/06/09 09:36:36;;;;;;;12.90;11.17;;;19.90;99.90;;;;;;5094526;28;20417;-80
2022/06/09 09:39:14;;;;;;;13.60;10.67;;;20.10;99.90;;;;;;5095903;28;20474;-81
2022/06/09 09:41:43;;;;;;;13.03;10.27;;;20.10;99.90;;;;;;5096176;28;20459;-81
2022/06/09 09:44:17;;;;;;;14.00;11.60;;;20.20;99.90;;;;;;5095634;28;20531;-79
2022/06/09 09:46:50;;;;;;;14.80;10.60;;;20.20;99.90;;;;;;5095746;28;20499;-81
2022/06/09 09:49:25;;;;;;;13.97;10.90;;;20.10;99.90;;;;;;5097004;28;20910;-79
2022/06/09 09:51:55;;;;;;;12.77;11.07;;;20.10;99.90;;;;;;5093846;28;20444;-81
2022/06/09 09:54:28;;;;;;;10.97;9.77;;;20.10;99.90;;;;;;5095212;28;20468;-82
2022/06/09 09:57:15;;;;;;;11.90;10.60;;;20.00;99.90;;;;;;5093947;28;20468;-79
2022/06/09 09:59:46;;;;;;;13.23;10.93;;;20.10;99.90;;;;;;5094769;28;20456;-80
2022/06/09 10:08:48;;;;;;;11.67;9.93;;;20.30;99.90;;;;;;5094622;28;20516;-83
2022/06/09 10:11:55;;;;;;;16.90;9.17;;;20.40;99.90;;;;;;5093683;28;20955;-82
2022/06/09 10:14:42;;;;;;;11.63;9.70;;;20.50;99.90;;;;;;5093761;28;20476;-80
2022/06/09 10:17:28;;;;;;;11.73;10.33;;;20.60;99.90;;;;;;5093953;28;20883;-81
2022/06/09 10:20:36;;;;;;;14.10;8.90;;;20.80;99.90;;;;;;5093762;28;20498;-82
2022/06/09 10:23:27;;;;;;;13.30;9.07;;;20.90;99.90;;;;;;5092767;28;20440;-81
2022/06/09 10:26:03;;;;;;;11.10;9.07;;;20.90;99.90;;;;;;5093002;28;20460;-80
2022/06/09 10:28:39;;;;;;;12.53;9.40;;;20.90;99.90;;;;;;5094578;28;20916;-80
2022/06/09 10:31:13;;;;;;;11.43;8.60;;;21.00;99.90;;;;;;5092966;28;20439;-82
2022/06/09 10:33:48;;;;;;;11.53;9.37;;;21.10;99.90;;;;;;5093558;28;20443;-81
2022/06/09 10:36:21;;;;;;;10.20;7.90;;;21.20;99.90;;;;;;5095097;28;20479;-81
2022/06/09 10:38:54;;;;;;;8.77;6.97;;;21.30;99.90;;;;;;5093493;28;20456;-79
2022/06/09 10:41:40;;;;;;;10.27;7.27;;;21.30;99.90;;;;;;5093659;28;20436;-80
2022/06/09 10:44:16;;;;;;;8.50;6.63;;;21.30;99.90;;;;;;5095790;28;20508;-80
2022/06/09 10:55:14;;;;;;;9.37;8.13;;;21.20;99.90;;;;;;5095125;28;20492;-81
2022/06/09 10:55:29;;;;;;;10.00;7.70;;;21.50;99.90;;;;;;5098598;28;20475;-79
2022/06/09 10:58:10;;;;;;;9.17;7.50;;;21.50;99.90;;;;;;5097071;28;20436;-81
2022/06/09 11:00:41;;;;;;;8.57;7.47;;;21.60;99.90;;;;;;5098807;28;20447;-81
2022/06/09 11:03:19;;;;;;;10.40;8.37;;;21.60;99.90;;;;;;5099865;28;20509;-83
2022/06/09 11:06:09;;;;;;;8.10;6.70;;;21.70;99.90;;;;;;5101860;28;20460;-83
2022/06/09 11:08:52;;;;;;;9.00;7.20;;;21.80;99.90;;;;;;5099126;28;20550;-83
2022/06/09 11:11:31;;;;;;;8.80;6.80;;;21.90;99.90;;;;;;5098252;28;20466;-80
2022/06/09 11:14:13;;;;;;;8.57;5.97;;;21.80;99.90;;;;;;5097468;28;20440;-81
2022/06/09 11:16:54;;;;;;;8.37;6.33;;;21.80;99.90;;;;;;5097831;28;20481;-82
2022/06/09 11:19:54;;;;;;;7.23;5.53;;;21.90;99.90;;;;;;5097230;28;20460;-79
2022/06/09 11:22:34;;;;;;;8.17;5.97;;;22.00;99.90;;;;;;5097263;28;20454;-83
2022/06/09 11:25:18;;;;;;;7.37;5.03;;;22.10;99.90;;;;;;5097352;28;21049;-81
2022/06/09 11:27:54;;;;;;;7.77;5.60;;;22.10;99.90;;;;;;5098645;28;20509;-82
2022/06/09 11:30:31;;;;;;;9.70;6.57;;;22.10;99.90;;;;;;5097559;28;20474;-81
2022/06/09 11:33:14;;;;;;;8.20;5.53;;;22.20;99.90;;;;;;5098733;28;20428;-81
2022/06/09 11:35:50;;;;;;;6.70;4.77;;;22.30;99.90;;;;;;5096583;28;20476;-81
2022/06/09 11:38:38;;;;;;;8.00;4.60;;;22.40;99.90;;;;;;5096775;28;20436;-80
2022/06/09 11:41:18;;;;;;;8.30;4.37;;;22.40;99.90;;;;;;5096757;28;20492;-79
2022/06/09 11:44:15;;;;;;;7.97;5.20;;;22.40;99.90;;;;;;5096553;28;20448;-78
2022/06/09 11:46:46;;;;;;;7.53;5.03;;;22.30;99.90;;;;;;5096186;28;20440;-82
2022/06/09 11:49:20;;;;;;;8.07;5.70;;;22.20;99.90;;;;;;5097806;28;20427;-81
2022/06/09 11:51:49;;;;;;;7.50;4.93;;;22.10;99.90;;;;;;5095795;28;20944;-79
2022/06/09 11:54:43;;;;;;;6.20;4.13;;;22.00;99.90;;;;;;5097600;28;20441;-80
2022/06/09 11:57:26;;;;;;;6.67;4.30;;;22.00;99.90;;;;;;5096248;28;20451;-79
2022/06/09 12:00:00;;;;;;;8.40;4.40;;;22.00;99.90;;;;;;5095282;28;20475;-82
2022/06/09 12:03:01;;;;;;;7.30;4.10;;;22.00;99.90;;;;;;5096300;28;20478;-81
2022/06/09 12:05:35;;;;;;;6.13;4.70;;;22.00;99.90;;;;;;5097415;28;20517;-81
2022/06/09 12:08:12;;;;;;;6.80;3.97;;;22.00;99.90;;;;;;5097168;28;20428;-79
2022/06/09 12:11:02;;;;;;;8.13;3.63;;;21.90;99.90;;;;;;5097357;28;20425;-80
2022/06/09 12:13:38;;;;;;;6.80;4.27;;;21.80;99.90;;;;;;5096377;28;20448;-81
2022/06/09 12:16:25;;;;;;;5.90;4.30;;;21.80;99.90;;;;;;5095695;28;20460;-82
2022/06/09 12:19:21;;;;;;;6.50;4.00;;;21.70;99.90;;;;;;5096591;28;20470;-83
2022/06/09 12:21:52;;;;;;;6.80;3.67;;;21.70;99.90;;;;;;5096133;28;20511;-82
2022/06/09 12:24:31;;;;;;;10.03;3.87;;;21.60;99.90;;;;;;5097666;28;20460;-80
2022/06/09 12:27:17;;;;;;;6.23;3.67;;;21.60;99.90;;;;;;5095876;28;20868;-79
2022/06/09 12:29:47;;;;;;;6.40;3.97;;;21.60;99.90;;;;;;5096830;28;20419;-80
2022/06/09 12:32:44;;;;;;;8.23;3.80;;;21.60;99.90;;;;;;5097369;28;20481;-80
2022/06/09 12:35:29;;;;;;;6.13;3.60;;;21.60;99.90;;;;;;5095706;28;20472;-80
2022/06/09 12:38:05;;;;;;;6.10;3.67;;;21.60;99.90;;;;;;5096023;28;20432;-80
2022/06/09 12:40:41;;;;;;;5.93;2.93;;;21.60;99.90;;;;;;5097534;28;20464;-80
2022/06/09 12:43:30;;;;;;;10.83;2.97;;;21.70;99.90;;;;;;5096008;28;20451;-81
2022/06/09 12:46:16;;;;;;;7.60;2.70;;;21.70;99.90;;;;;;5097318;28;21054;-79
2022/06/09 12:48:44;;;;;;;7.20;2.80;;;21.70;99.90;;;;;;5097184;28;20532;-79
2022/06/09 12:51:19;;;;;;;4.97;1.80;;;21.80;99.90;;;;;;5109324;28;20509;-81
2022/06/09 12:54:00;;;;;;;7.03;2.43;;;21.90;99.90;;;;;;5108760;28;20949;-79
2022/06/09 12:56:36;;;;;;;4.70;1.93;;;22.00;99.90;;;;;;5108527;28;20451;-79
2022/06/09 12:59:17;;;;;;;6.33;2.00;;;22.10;99.90;;;;;;5105806;28;20444;-80
2022/06/09 13:02:02;;;;;;;5.43;1.70;;;22.20;99.90;;;;;;5110453;28;20493;-79
2022/06/09 13:04:32;;;;;;;5.40;1.60;;;22.30;99.80;;;;;;5112757;28;20460;-80
2022/06/09 13:07:03;;;;;;;3.90;1.30;;;22.30;99.60;;;;;;5114594;28;20447;-82
2022/06/09 13:09:33;;;;;;;5.87;1.80;;;22.40;99.60;;;;;;5115147;28;20412;-81
2022/06/09 13:14:52;;;;;;;4.53;1.30;;;22.40;98.90;;;;;;5103862;28;20460;-82
2022/06/09 13:17:26;;;;;;;4.00;1.27;;;22.40;98.70;;;;;;5102796;28;20452;-82
2022/06/09 13:19:57;;;;;;;6.53;1.70;;;22.40;98.60;;;;;;5102317;28;20464;-80
2022/06/09 13:22:29;;;;;;;7.00;1.53;;;22.40;98.30;;;;;;5101320;28;20451;-80
2022/06/09 13:24:58;;;;;;;5.13;1.63;;;22.40;98.10;;;;;;5103536;28;20802;-80
2022/06/09 13:27:30;;;;;;;4.47;1.23;;;22.30;98.10;;;;;;5104971;28;20436;-81